createdAt,value
2019-03-23T00:02:02.692Z,99.90
2019-03-23T00:04:29.058Z,99.90
2019-03-23T00:06:55.752Z,99.90
2019-03-23T00:09:22.231Z,99.90
2019-03-23T00:11:48.609Z,99.90
2019-03-23T00:14:14.956Z,99.90
2019-03-23T00:16:41.300Z,99.90
2019-03-23T00:19:07.641Z,99.90
2019-03-23T00:21:34.076Z,99.90
2019-03-23T00:24:00.441Z,99.90
2019-03-23T00:26:26.691Z,99.90
2019-03-23T00:28:53.020Z,99.90
2019-03-23T00:31:19.398Z,99.90
2019-03-23T00:33:45.728Z,99.90
2019-03-23T00:36:12.369Z,99.90
2019-03-23T00:38:38.601Z,99.90
2019-03-23T00:41:04.848Z,99.90
2019-03-23T00:43:31.081Z,99.90
2019-03-23T00:45:57.725Z,99.90
2019-03-23T00:48:24.173Z,99.90
2019-03-23T00:50:50.418Z,99.90
2019-03-23T00:53:16.681Z,99.90
2019-03-23T00:55:42.917Z,99.90
2019-03-23T00:58:09.564Z,99.90
2019-03-23T01:00:35.914Z,99.90
2019-03-23T01:03:02.453Z,99.90
2019-03-23T01:05:28.896Z,99.90
2019-03-23T01:07:55.374Z,99.90
2019-03-23T01:10:21.712Z,99.90
2019-03-23T01:12:47.961Z,99.90
2019-03-23T01:15:14.433Z,99.90
2019-03-23T01:17:40.872Z,99.90
2019-03-23T01:20:09.412Z,99.90
2019-03-23T01:22:35.868Z,99.90
2019-03-23T01:25:04.801Z,99.90
2019-03-23T01:27:31.144Z,99.90
2019-03-23T01:29:57.400Z,99.90
2019-03-23T01:32:23.746Z,99.90
2019-03-23T01:34:49.976Z,99.90
2019-03-23T01:37:16.540Z,99.90
2019-03-23T01:39:42.863Z,99.90
2019-03-23T01:42:09.201Z,99.90
2019-03-23T01:44:35.448Z,99.90
2019-03-23T01:47:01.804Z,99.90
2019-03-23T01:49:28.136Z,99.90
2019-03-23T01:51:54.480Z,99.90
2019-03-23T01:54:20.728Z,99.90
2019-03-23T01:56:47.072Z,99.90
2019-03-23T01:59:13.434Z,99.90
2019-03-23T02:01:39.872Z,99.90
2019-03-23T02:04:06.728Z,99.90
2019-03-23T02:06:33.081Z,99.90
2019-03-23T02:08:59.325Z,99.90
2019-03-23T02:11:25.612Z,99.90
2019-03-23T02:13:51.853Z,99.90
2019-03-23T02:16:18.302Z,99.90
2019-03-23T02:18:44.541Z,99.90
2019-03-23T02:21:11.016Z,99.90
2019-03-23T02:23:37.278Z,99.90
2019-03-23T02:26:03.512Z,99.90
2019-03-23T02:28:29.766Z,99.90
2019-03-23T02:30:56.012Z,99.90
2019-03-23T02:33:22.250Z,99.90
2019-03-23T02:35:48.694Z,99.90
2019-03-23T02:38:15.241Z,99.90
2019-03-23T02:40:41.465Z,99.90
2019-03-23T02:43:07.850Z,99.90
2019-03-23T02:45:34.093Z,99.90
2019-03-23T02:48:00.328Z,99.90
2019-03-23T02:50:26.568Z,99.90
2019-03-23T02:52:53.003Z,99.90
2019-03-23T02:55:19.354Z,99.90
2019-03-23T02:57:45.802Z,99.90
2019-03-23T03:00:13.835Z,99.90
2019-03-23T03:02:40.273Z,99.90
2019-03-23T03:05:07.350Z,99.90
2019-03-23T03:07:41.797Z,99.90
2019-03-23T03:10:04.333Z,99.90
2019-03-23T03:12:30.768Z,99.90
2019-03-23T03:14:57.012Z,99.90
2019-03-23T03:17:23.250Z,99.90
2019-03-23T03:19:49.520Z,99.90
2019-03-23T03:22:15.855Z,99.90
2019-03-23T03:24:42.187Z,99.90
2019-03-23T03:27:08.745Z,99.90
2019-03-23T03:29:35.001Z,99.90
2019-03-23T03:32:01.341Z,99.90
2019-03-23T03:34:27.692Z,99.90
2019-03-23T03:36:54.017Z,99.90
2019-03-23T03:39:20.358Z,99.90
2019-03-23T03:41:46.700Z,99.90
2019-03-23T03:44:13.052Z,99.90
2019-03-23T03:46:39.301Z,99.90
2019-03-23T03:49:12.166Z,99.90
2019-03-23T03:51:33.701Z,99.90
2019-03-23T03:54:00.033Z,99.90
2019-03-23T03:56:26.325Z,99.90
2019-03-23T03:58:52.665Z,99.90
2019-03-23T04:01:18.909Z,99.90
2019-03-23T04:03:45.180Z,99.90
2019-03-23T04:06:11.418Z,99.90
2019-03-23T04:08:37.763Z,99.90
2019-03-23T04:11:04.300Z,99.90
2019-03-23T04:13:30.533Z,99.90
2019-03-23T04:15:56.974Z,99.90
2019-03-23T04:18:25.221Z,99.90
2019-03-23T04:20:51.469Z,99.90
2019-03-23T04:23:17.801Z,99.90
2019-03-23T04:25:44.047Z,99.90
2019-03-23T04:28:10.381Z,99.90
2019-03-23T04:30:36.632Z,99.90
2019-03-23T04:33:03.009Z,99.90
2019-03-23T04:35:29.355Z,99.90
2019-03-23T04:37:55.694Z,99.90
2019-03-23T04:40:22.137Z,99.90
2019-03-23T04:42:48.366Z,99.90
2019-03-23T04:45:15.292Z,99.90
2019-03-23T04:47:41.650Z,99.90
2019-03-23T04:50:09.388Z,99.90
2019-03-23T04:52:35.628Z,99.90
2019-03-23T04:55:09.661Z,99.90
2019-03-23T04:57:36.301Z,99.90
2019-03-23T05:00:06.252Z,99.90
2019-03-23T05:02:32.605Z,99.90
2019-03-23T05:04:58.868Z,99.90
2019-03-23T05:07:25.108Z,99.90
2019-03-23T05:09:51.344Z,99.90
2019-03-23T05:12:17.600Z,99.90
2019-03-23T05:14:43.940Z,99.90
2019-03-23T05:17:10.212Z,99.90
2019-03-23T05:19:36.452Z,99.90
2019-03-23T05:22:02.889Z,99.90
2019-03-23T05:24:29.249Z,99.90
2019-03-23T05:26:55.585Z,99.90
2019-03-23T05:29:21.820Z,99.90
2019-03-23T05:31:48.173Z,99.90
2019-03-23T05:34:14.609Z,99.90
2019-03-23T05:36:40.861Z,99.90
2019-03-23T05:39:07.139Z,99.90
2019-03-23T05:41:33.522Z,99.90
2019-03-23T05:43:59.762Z,99.90
2019-03-23T05:46:26.024Z,99.90
2019-03-23T05:48:52.368Z,99.90
2019-03-23T05:51:18.720Z,99.90
2019-03-23T05:53:45.060Z,99.90
2019-03-23T05:56:11.559Z,99.90
2019-03-23T05:58:37.968Z,99.90
2019-03-23T06:01:04.434Z,99.90
2019-03-23T06:03:30.664Z,99.90
2019-03-23T06:05:56.904Z,99.90
2019-03-23T06:08:23.249Z,99.90
2019-03-23T06:10:49.699Z,99.90
2019-03-23T06:13:15.946Z,99.90
2019-03-23T06:15:42.192Z,99.90
2019-03-23T06:18:08.432Z,99.90
2019-03-23T06:20:34.866Z,99.90
2019-03-23T06:23:01.140Z,99.90
2019-03-23T06:25:27.583Z,99.90
2019-03-23T06:27:56.156Z,99.90
2019-03-23T06:30:22.069Z,99.90
2019-03-23T06:32:48.304Z,99.90
2019-03-23T06:35:14.852Z,99.90
2019-03-23T06:37:41.297Z,99.90
2019-03-23T06:40:09.236Z,99.90
2019-03-23T06:42:35.856Z,99.90
2019-03-23T06:45:05.243Z,99.90
2019-03-23T06:47:31.456Z,99.90
2019-03-23T06:49:57.704Z,99.90
2019-03-23T06:52:24.157Z,99.90
2019-03-23T06:54:50.512Z,99.90
2019-03-23T06:57:16.761Z,99.90
2019-03-23T06:59:43.123Z,99.90
2019-03-23T07:02:09.442Z,99.90
2019-03-23T07:04:35.701Z,99.90
2019-03-23T07:07:02.066Z,99.90
2019-03-23T07:09:28.397Z,99.90
2019-03-23T07:11:54.659Z,99.90
2019-03-23T07:14:21.859Z,99.90
2019-03-23T07:16:48.204Z,99.90
2019-03-23T07:19:14.553Z,99.90
2019-03-23T07:21:40.904Z,99.90
2019-03-23T07:24:07.242Z,99.90
2019-03-23T07:26:33.589Z,99.90
2019-03-23T07:28:59.851Z,99.90
2019-03-23T07:31:26.189Z,99.90
2019-03-23T07:33:52.429Z,99.90
2019-03-23T07:36:18.881Z,99.90
2019-03-23T07:38:45.124Z,99.90
2019-03-23T07:41:11.457Z,99.90
2019-03-23T07:43:37.990Z,99.90
2019-03-23T07:46:04.317Z,99.90
2019-03-23T07:48:30.657Z,99.90
2019-03-23T07:50:57.142Z,99.90
2019-03-23T07:53:23.485Z,99.90
2019-03-23T07:55:49.725Z,99.90
2019-03-23T07:58:16.067Z,99.90
2019-03-23T08:00:42.410Z,99.90
2019-03-23T08:03:08.762Z,99.90
2019-03-23T08:05:35.105Z,99.90
2019-03-23T08:08:01.453Z,99.90
2019-03-23T08:10:31.974Z,99.90
2019-03-23T08:12:58.541Z,99.90
2019-03-23T08:15:25.353Z,99.90
2019-03-23T08:17:51.509Z,99.90
2019-03-23T08:20:17.845Z,99.90
2019-03-23T08:22:44.100Z,99.90
2019-03-23T08:25:10.588Z,99.90
2019-03-23T08:27:36.949Z,99.90
2019-03-23T08:30:04.792Z,99.90
2019-03-23T08:32:31.034Z,99.90
2019-03-23T08:34:58.152Z,99.90
2019-03-23T08:37:24.685Z,99.90
2019-03-23T08:39:51.024Z,99.90
2019-03-23T08:42:17.384Z,99.90
2019-03-23T08:44:43.627Z,99.90
2019-03-23T08:47:09.867Z,99.90
2019-03-23T08:49:36.106Z,99.90
2019-03-23T08:52:02.589Z,99.90
2019-03-23T08:54:28.832Z,99.90
2019-03-23T08:56:55.415Z,99.90
2019-03-23T08:59:21.648Z,99.90
2019-03-23T09:01:48.090Z,99.90
2019-03-23T09:04:14.668Z,99.90
2019-03-23T09:06:40.972Z,99.90
2019-03-23T09:09:07.520Z,99.90
2019-03-23T09:11:33.768Z,99.90
2019-03-23T09:14:00.124Z,99.90
2019-03-23T09:16:26.632Z,99.90
2019-03-23T09:18:53.130Z,99.90
2019-03-23T09:21:19.457Z,99.90
2019-03-23T09:23:45.704Z,99.90
2019-03-23T09:26:13.715Z,99.90
2019-03-23T09:28:40.092Z,99.90
2019-03-23T09:31:06.444Z,99.90
2019-03-23T09:33:32.806Z,99.90
2019-03-23T09:35:59.241Z,99.90
2019-03-23T09:38:25.594Z,99.90
2019-03-23T09:40:51.973Z,99.90
2019-03-23T09:43:18.542Z,99.90
2019-03-23T09:45:45.007Z,99.90
2019-03-23T09:48:11.244Z,99.90
2019-03-23T09:50:37.572Z,99.90
2019-03-23T09:53:04.012Z,99.90
2019-03-23T09:55:30.271Z,99.90
2019-03-23T09:57:56.506Z,99.90
2019-03-23T10:00:23.040Z,99.90
2019-03-23T10:02:49.336Z,99.90
2019-03-23T10:05:15.567Z,99.90
2019-03-23T10:07:41.905Z,99.90
2019-03-23T10:10:08.528Z,99.90
2019-03-23T10:12:34.769Z,99.90
2019-03-23T10:15:01.321Z,99.90
2019-03-23T10:17:27.616Z,99.90
2019-03-23T10:19:53.867Z,99.90
2019-03-23T10:22:20.314Z,99.90
2019-03-23T10:24:46.689Z,99.90
2019-03-23T10:27:13.129Z,99.90
2019-03-23T10:29:39.369Z,99.90
2019-03-23T10:32:05.813Z,99.90
2019-03-23T10:34:32.179Z,99.30
2019-03-23T10:36:58.541Z,98.90
2019-03-23T10:39:25.007Z,97.50
2019-03-23T10:41:51.249Z,96.40
2019-03-23T10:44:17.497Z,95.40
2019-03-23T10:46:43.907Z,94.70
2019-03-23T10:49:10.445Z,94.10
2019-03-23T10:51:36.897Z,93.10
2019-03-23T10:54:04.140Z,93.10
2019-03-23T10:56:30.512Z,90.80
2019-03-23T10:58:56.744Z,87.00
2019-03-23T11:01:22.997Z,85.80
2019-03-23T11:03:49.364Z,85.80
2019-03-23T11:06:15.897Z,81.50
2019-03-23T11:08:42.166Z,79.90
2019-03-23T11:11:08.401Z,77.10
2019-03-23T11:13:34.688Z,73.10
2019-03-23T11:16:01.032Z,74.00
2019-03-23T11:18:27.680Z,73.20
2019-03-23T11:20:54.106Z,70.60
2019-03-23T11:23:20.472Z,71.70
2019-03-23T11:25:46.720Z,71.40
2019-03-23T11:28:13.177Z,68.00
2019-03-23T11:30:39.486Z,65.00
2019-03-23T11:33:05.939Z,65.10
2019-03-23T11:35:32.278Z,62.70
2019-03-23T11:37:58.616Z,62.70
2019-03-23T11:40:25.064Z,62.30
2019-03-23T11:42:51.304Z,61.90
2019-03-23T11:45:17.661Z,63.80
2019-03-23T11:47:43.998Z,65.60
2019-03-23T11:50:10.534Z,63.70
2019-03-23T11:52:37.069Z,63.20
2019-03-23T11:55:05.308Z,64.80
2019-03-23T11:57:31.663Z,80.00
2019-03-23T11:59:57.906Z,84.30
2019-03-23T12:02:24.268Z,79.70
2019-03-23T12:04:50.510Z,77.00
2019-03-23T12:07:16.852Z,74.20
2019-03-23T12:09:43.194Z,75.90
2019-03-23T12:12:09.629Z,68.30
2019-03-23T12:14:36.028Z,59.00
2019-03-23T12:17:02.464Z,62.40
2019-03-23T12:19:29.252Z,63.90
2019-03-23T12:21:55.534Z,62.60
2019-03-23T12:24:21.877Z,61.00
2019-03-23T12:26:48.408Z,57.30
2019-03-23T12:29:14.752Z,60.70
2019-03-23T12:31:41.099Z,58.70
2019-03-23T12:34:07.456Z,59.00
2019-03-23T12:36:33.800Z,58.60
2019-03-23T12:39:00.157Z,57.60
2019-03-23T12:41:26.488Z,57.50
2019-03-23T12:43:52.762Z,55.80
2019-03-23T12:46:19.200Z,56.90
2019-03-23T12:48:45.641Z,55.30
2019-03-23T12:51:12.078Z,55.80
2019-03-23T12:53:38.312Z,53.40
2019-03-23T12:56:04.749Z,51.60
2019-03-23T12:58:31.101Z,52.30
2019-03-23T13:00:57.552Z,52.10
2019-03-23T13:03:23.897Z,49.60
2019-03-23T13:05:50.276Z,52.00
2019-03-23T13:08:16.632Z,52.40
2019-03-23T13:10:43.069Z,50.50
2019-03-23T13:13:09.613Z,50.80
2019-03-23T13:15:35.957Z,48.90
2019-03-23T13:18:03.170Z,47.00
2019-03-23T13:20:29.783Z,47.40
2019-03-23T13:22:56.055Z,46.60
2019-03-23T13:25:22.384Z,47.40
2019-03-23T13:27:48.666Z,47.70
2019-03-23T13:30:15.809Z,47.80
2019-03-23T13:32:42.154Z,46.70
2019-03-23T13:35:08.800Z,47.10
2019-03-23T13:37:35.137Z,47.10
2019-03-23T13:40:01.683Z,46.90
2019-03-23T13:42:27.937Z,46.80
2019-03-23T13:44:54.297Z,46.60
2019-03-23T13:47:20.728Z,47.20
2019-03-23T13:49:47.343Z,47.60
2019-03-23T13:52:13.689Z,47.70
2019-03-23T13:54:40.033Z,48.20
2019-03-23T13:57:06.464Z,47.30
2019-03-23T13:59:32.708Z,48.10
2019-03-23T14:01:59.158Z,48.40
2019-03-23T14:04:25.504Z,49.40
2019-03-23T14:06:51.757Z,49.70
2019-03-23T14:09:18.091Z,49.10
2019-03-23T14:11:44.452Z,49.10
2019-03-23T14:14:10.689Z,49.60
2019-03-23T14:16:36.941Z,49.50
2019-03-23T14:19:03.302Z,49.50
2019-03-23T14:21:29.664Z,49.60
2019-03-23T14:23:56.004Z,50.90
2019-03-23T14:26:22.267Z,50.60
2019-03-23T14:28:48.617Z,49.30
2019-03-23T14:31:14.962Z,50.10
2019-03-23T14:33:41.277Z,50.70
2019-03-23T14:36:07.615Z,51.70
2019-03-23T14:38:33.960Z,51.80
2019-03-23T14:41:00.248Z,52.10
2019-03-23T14:43:26.596Z,52.50
2019-03-23T14:45:53.064Z,52.70
2019-03-23T14:48:19.233Z,52.40
2019-03-23T14:50:45.653Z,52.10
2019-03-23T14:53:12.041Z,51.90
2019-03-23T14:55:38.429Z,52.10
2019-03-23T14:58:04.876Z,52.10
2019-03-23T15:00:32.346Z,52.40
2019-03-23T15:02:58.780Z,53.00
2019-03-23T15:05:25.222Z,52.10
2019-03-23T15:07:51.664Z,51.60
2019-03-23T15:10:18.013Z,52.10
2019-03-23T15:12:44.348Z,52.60
2019-03-23T15:15:10.776Z,52.20
2019-03-23T15:17:37.057Z,52.50
2019-03-23T15:20:04.620Z,52.30
2019-03-23T15:22:30.889Z,53.20
2019-03-23T15:24:57.233Z,52.60
2019-03-23T15:27:23.484Z,51.90
2019-03-23T15:29:49.837Z,52.00
2019-03-23T15:32:16.190Z,52.20
2019-03-23T15:34:42.625Z,51.10
2019-03-23T15:37:08.980Z,51.40
2019-03-23T15:39:35.350Z,50.20
2019-03-23T15:42:01.694Z,49.40
2019-03-23T15:44:27.928Z,50.00
2019-03-23T15:46:54.209Z,50.30
2019-03-23T15:49:20.632Z,50.80
2019-03-23T15:51:46.880Z,50.70
2019-03-23T15:54:13.163Z,51.10
2019-03-23T15:56:39.507Z,50.90
2019-03-23T15:59:05.839Z,51.40
2019-03-23T16:01:32.240Z,51.60
2019-03-23T16:03:58.463Z,52.20
2019-03-23T16:06:24.810Z,52.30
2019-03-23T16:08:51.152Z,52.40
2019-03-23T16:11:17.489Z,53.10
2019-03-23T16:13:43.933Z,53.20
2019-03-23T16:16:10.420Z,53.70
2019-03-23T16:18:36.622Z,53.80
2019-03-23T16:21:03.064Z,53.80
2019-03-23T16:23:29.453Z,54.20
2019-03-23T16:25:55.686Z,54.40
2019-03-23T16:28:22.129Z,54.90
2019-03-23T16:30:48.412Z,55.50
2019-03-23T16:33:14.671Z,55.20
2019-03-23T16:35:41.094Z,55.60
2019-03-23T16:38:07.459Z,55.70
2019-03-23T16:40:33.711Z,55.70
2019-03-23T16:43:00.043Z,57.70
2019-03-23T16:45:26.484Z,57.50
2019-03-23T16:47:52.987Z,57.40
2019-03-23T16:50:19.317Z,57.40
2019-03-23T16:52:45.584Z,57.80
2019-03-23T16:55:12.257Z,58.10
2019-03-23T16:57:38.624Z,58.30
2019-03-23T17:00:08.053Z,58.20
2019-03-23T17:02:34.437Z,58.50
2019-03-23T17:05:00.683Z,58.70
2019-03-23T17:07:27.231Z,59.00
2019-03-23T17:09:53.575Z,59.30
2019-03-23T17:12:19.828Z,59.10
2019-03-23T17:14:46.307Z,59.70
2019-03-23T17:17:12.721Z,59.90
2019-03-23T17:19:38.969Z,59.80
2019-03-23T17:22:05.306Z,60.20
2019-03-23T17:24:31.701Z,60.20
2019-03-23T17:26:58.145Z,60.30
2019-03-23T17:29:24.513Z,60.20
2019-03-23T17:31:50.848Z,60.90
2019-03-23T17:34:17.184Z,60.60
2019-03-23T17:36:43.450Z,60.80
2019-03-23T17:39:09.690Z,60.70
2019-03-23T17:41:36.030Z,61.30
2019-03-23T17:44:04.491Z,61.40
2019-03-23T17:46:30.922Z,61.00
2019-03-23T17:48:57.264Z,61.50
2019-03-23T17:51:23.514Z,61.60
2019-03-23T17:53:58.261Z,61.40
2019-03-23T17:56:18.237Z,61.40
2019-03-23T17:58:44.608Z,61.50
2019-03-23T18:01:19.341Z,61.40
2019-03-23T18:03:41.828Z,61.60
2019-03-23T18:06:08.329Z,61.50
2019-03-23T18:08:34.913Z,62.00
2019-03-23T18:11:01.355Z,62.20
2019-03-23T18:13:27.620Z,61.90
2019-03-23T18:15:53.860Z,61.90
2019-03-23T18:18:20.105Z,62.00
2019-03-23T18:20:46.486Z,62.10
2019-03-23T18:23:13.000Z,62.30
2019-03-23T18:25:39.398Z,62.60
2019-03-23T18:28:05.744Z,62.30
2019-03-23T18:30:40.134Z,62.30
2019-03-23T18:33:06.673Z,62.30
2019-03-23T18:35:33.230Z,62.70
2019-03-23T18:38:00.661Z,62.70
2019-03-23T18:40:26.939Z,62.90
2019-03-23T18:42:53.292Z,62.70
2019-03-23T18:45:19.525Z,63.00
2019-03-23T18:47:45.797Z,63.20
2019-03-23T18:50:12.384Z,63.20
2019-03-23T18:52:38.844Z,63.50
2019-03-23T18:55:05.693Z,63.40
2019-03-23T18:57:31.917Z,63.50
2019-03-23T18:59:58.171Z,63.20
2019-03-23T19:02:24.544Z,63.40
2019-03-23T19:04:50.986Z,63.50
2019-03-23T19:07:17.394Z,63.90
2019-03-23T19:09:43.636Z,64.00
2019-03-23T19:12:10.082Z,64.00
2019-03-23T19:14:36.524Z,64.30
2019-03-23T19:17:02.978Z,64.20
2019-03-23T19:19:29.321Z,64.60
2019-03-23T19:21:55.664Z,64.50
2019-03-23T19:24:22.031Z,64.80
2019-03-23T19:26:48.989Z,64.60
2019-03-23T19:29:15.425Z,64.70
2019-03-23T19:31:41.787Z,65.00
2019-03-23T19:34:08.136Z,65.10
2019-03-23T19:36:34.658Z,65.80
2019-03-23T19:39:00.882Z,65.30
2019-03-23T19:41:27.137Z,65.80
2019-03-23T19:43:53.502Z,65.60
2019-03-23T19:46:19.977Z,65.80
2019-03-23T19:48:46.247Z,66.00
2019-03-23T19:51:12.497Z,65.90
2019-03-23T19:53:38.881Z,66.20
2019-03-23T19:56:05.748Z,66.30
2019-03-23T19:58:32.219Z,66.90
2019-03-23T20:00:58.885Z,67.00
2019-03-23T20:03:25.508Z,67.00
2019-03-23T20:05:51.949Z,67.30
2019-03-23T20:08:18.319Z,67.30
2019-03-23T20:10:44.760Z,67.50
2019-03-23T20:13:11.217Z,67.30
2019-03-23T20:15:37.642Z,67.90
2019-03-23T20:18:04.520Z,68.20
2019-03-23T20:20:30.931Z,68.20
2019-03-23T20:22:57.168Z,68.20
2019-03-23T20:25:23.621Z,68.40
2019-03-23T20:27:50.017Z,68.50
2019-03-23T20:30:16.693Z,68.40
2019-03-23T20:32:43.154Z,68.50
2019-03-23T20:35:10.003Z,68.70
2019-03-23T20:37:36.461Z,69.00
2019-03-23T20:40:05.620Z,69.00
2019-03-23T20:42:32.050Z,69.20
2019-03-23T20:44:58.400Z,69.20
2019-03-23T20:47:24.874Z,69.40
2019-03-23T20:49:51.608Z,69.40
2019-03-23T20:52:17.982Z,69.60
2019-03-23T20:54:44.418Z,69.60
2019-03-23T20:57:10.941Z,69.70
2019-03-23T20:59:37.293Z,70.10
2019-03-23T21:02:03.740Z,69.90
2019-03-23T21:04:30.021Z,70.10
2019-03-23T21:06:56.268Z,70.20
2019-03-23T21:09:22.729Z,70.10
2019-03-23T21:11:49.201Z,70.50
2019-03-23T21:14:20.240Z,70.40
2019-03-23T21:16:43.629Z,70.90
2019-03-23T21:19:09.972Z,70.90
2019-03-23T21:21:36.134Z,70.80
2019-03-23T21:24:02.672Z,70.80
2019-03-23T21:26:29.984Z,70.90
2019-03-23T21:28:56.362Z,70.80
2019-03-23T21:31:22.710Z,71.40
2019-03-23T21:33:49.150Z,71.10
2019-03-23T21:36:15.421Z,71.00
2019-03-23T21:38:41.768Z,71.30
2019-03-23T21:41:08.216Z,71.40
2019-03-23T21:43:34.572Z,71.20
2019-03-23T21:46:00.908Z,71.40
2019-03-23T21:48:27.245Z,71.90
2019-03-23T21:50:55.550Z,71.30
2019-03-23T21:53:21.869Z,71.20
2019-03-23T21:55:48.104Z,71.70
2019-03-23T21:58:14.613Z,71.50
2019-03-23T22:00:40.940Z,71.50
2019-03-23T22:03:07.277Z,71.70
2019-03-23T22:05:33.720Z,71.80
2019-03-23T22:07:59.980Z,72.20
2019-03-23T22:10:26.315Z,72.60
2019-03-23T22:12:52.665Z,72.50
2019-03-23T22:15:19.106Z,72.60
2019-03-23T22:17:45.546Z,72.40
2019-03-23T22:20:12.084Z,72.50
2019-03-23T22:22:38.316Z,73.10
2019-03-23T22:25:06.160Z,72.70
2019-03-23T22:27:32.741Z,73.00
2019-03-23T22:29:59.634Z,73.10
2019-03-23T22:32:25.881Z,73.30
2019-03-23T22:34:52.235Z,73.00
2019-03-23T22:37:18.478Z,73.10
2019-03-23T22:39:44.824Z,73.10
2019-03-23T22:42:11.082Z,72.70
2019-03-23T22:44:37.320Z,72.80
2019-03-23T22:47:03.557Z,72.50
2019-03-23T22:49:29.808Z,72.30
2019-03-23T22:51:56.272Z,72.60
2019-03-23T22:54:22.616Z,72.50
2019-03-23T22:56:48.869Z,72.50
2019-03-23T22:59:15.481Z,72.60
2019-03-23T23:01:42.036Z,72.80
2019-03-23T23:04:08.521Z,72.90
2019-03-23T23:06:34.756Z,72.90
2019-03-23T23:09:01.109Z,72.90
2019-03-23T23:11:27.552Z,72.80
2019-03-23T23:13:53.804Z,72.90
2019-03-23T23:16:20.152Z,73.10
2019-03-23T23:18:46.410Z,73.10
2019-03-23T23:21:12.845Z,73.00
2019-03-23T23:23:39.076Z,73.20
2019-03-23T23:26:05.345Z,73.10
2019-03-23T23:28:31.575Z,73.10
2019-03-23T23:30:58.684Z,72.90
2019-03-23T23:33:25.032Z,72.70
2019-03-23T23:35:51.380Z,73.00
2019-03-23T23:38:17.924Z,72.80
2019-03-23T23:40:44.231Z,72.80
2019-03-23T23:43:10.561Z,72.60
2019-03-23T23:45:36.900Z,72.50
2019-03-23T23:48:03.439Z,72.10
2019-03-23T23:50:29.669Z,72.70
2019-03-23T23:52:55.996Z,72.90
2019-03-23T23:55:22.444Z,72.90
2019-03-23T23:57:48.692Z,72.90
